This is the latest recevied weather packets stored in our database for station/object KK4XZ. If no packets are shown the sender has not sent any weather packets the latest 10 day(s).
| Time | Temp. | Humidity | Pressure | Rain* | Wind** | Luminosity | Snow |
|---|---|---|---|---|---|---|---|
| 1777485323 | 22.78° C | 78% | 1012.2 hPa | 0 mm | - | - | - |
| 1777484718 | 22.22° C | 79% | 1012.3 hPa | 0 mm | - | - | - |
| 1777484133 | 21.67° C | 81% | 1012.6 hPa | 0 mm | - | - | - |
| 1777483528 | 21.11° C | 84% | 1012.8 hPa | 0 mm | - | - | - |
| 1777482924 | 20.56° C | 85% | 1012.8 hPa | 0 mm | - | - | - |
| 1777482319 | 20.56° C | 85% | 1013.3 hPa | 0 mm | - | - | - |
| 1777481734 | 20.56° C | 85% | 1013.4 hPa | 0 mm | - | - | - |
| 1777481129 | 20.56° C | 85% | 1013.6 hPa | 0 mm | - | - | - |
| 1777480524 | 20.56° C | 84% | 1013.7 hPa | 0 mm | - | - | - |
| 1777479919 | 20.56° C | 83% | 1013.9 hPa | 0 mm | - | - | - |
| 1777479334 | 20.56° C | 83% | 1014 hPa | 0 mm | - | - | - |
| 1777478729 | 20° C | 85% | 1014.2 hPa | 0 mm | - | - | - |
| 1777478124 | 20° C | 86% | 1014.3 hPa | 0 mm | - | - | - |
| 1777477519 | 19.44° C | 87% | 1014.5 hPa | 0 mm | - | - | - |
| 1777476934 | 19.44° C | 86% | 1014.7 hPa | 0 mm | - | - | - |
| 1777476330 | 19.44° C | 86% | 1014.8 hPa | 0 mm | - | - | - |
| 1777475725 | 19.44° C | 86% | 1014.8 hPa | 0 mm | - | - | - |
| 1777475120 | 19.44° C | 86% | 1014.9 hPa | 0 mm | - | - | - |
| 1777474535 | 18.89° C | 85% | 1015 hPa | 0 mm | - | - | - |
| 1777473930 | 18.89° C | 85% | 1015.1 hPa | 0 mm | - | - | - |
| 1777473325 | 19.44° C | 83% | 1015.1 hPa | 0 mm | - | - | - |
| 1777472721 | 19.44° C | 82% | 1015 hPa | 0 mm | - | - | - |
| 1777472135 | 19.44° C | 83% | 1015.1 hPa | 0 mm | - | - | - |
| 1777471530 | 19.44° C | 83% | 1015.2 hPa | 0 mm | - | - | - |
| 1777470925 | 18.89° C | 86% | 1015.3 hPa | 0 mm | - | - | - |
* Rain latest hour (hover to see other rain measurements)
** Current wind speed in m/s (hover to see current wind gust speed)